createdAt,value
2022-09-24T00:00:45.660Z,17.97
2022-09-24T00:01:47.142Z,17.96
2022-09-24T00:02:48.698Z,17.96
2022-09-24T00:03:53.751Z,17.94
2022-09-24T00:04:55.236Z,17.92
2022-09-24T00:06:01.064Z,17.91
2022-09-24T00:07:02.553Z,17.86
2022-09-24T00:08:04.175Z,17.81
2022-09-24T00:09:05.663Z,17.76
2022-09-24T00:10:07.279Z,17.73
2022-09-24T00:11:10.863Z,17.68
2022-09-24T00:12:13.210Z,17.68
2022-09-24T00:13:15.866Z,17.69
2022-09-24T00:14:17.350Z,17.70
2022-09-24T00:15:18.792Z,17.71
2022-09-24T00:16:21.048Z,17.73
2022-09-24T00:17:22.653Z,17.74
2022-09-24T00:18:24.327Z,17.75
2022-09-24T00:19:25.781Z,17.74
2022-09-24T00:20:29.444Z,17.72
2022-09-24T00:21:31.643Z,17.72
2022-09-24T00:22:33.096Z,17.72
2022-09-24T00:23:34.568Z,17.72
2022-09-24T00:24:54.586Z,17.72
2022-09-24T00:26:14.840Z,17.72
2022-09-24T00:27:16.281Z,17.72
2022-09-24T00:28:17.788Z,17.71
2022-09-24T00:29:22.915Z,17.71
2022-09-24T00:30:24.386Z,17.69
2022-09-24T00:31:26.054Z,17.70
2022-09-24T00:32:27.525Z,17.69
2022-09-24T00:33:29.016Z,17.69
2022-09-24T00:34:30.506Z,17.70
2022-09-24T00:35:32.692Z,17.68
2022-09-24T00:36:34.148Z,17.68
2022-09-24T00:37:35.627Z,17.68
2022-09-24T00:38:37.084Z,17.67
2022-09-24T00:39:39.744Z,17.68
2022-09-24T00:40:41.407Z,17.67
2022-09-24T00:41:45.363Z,17.66
2022-09-24T00:42:46.813Z,17.67
2022-09-24T00:43:48.773Z,17.65
2022-09-24T00:44:54.044Z,17.62
2022-09-24T00:46:03.347Z,17.63
2022-09-24T00:47:04.904Z,17.61
2022-09-24T00:48:07.775Z,17.60
2022-09-24T00:49:12.837Z,17.60
2022-09-24T00:50:17.485Z,17.60
2022-09-24T00:51:20.257Z,17.58
2022-09-24T00:52:21.749Z,17.58
2022-09-24T00:53:23.300Z,17.58
2022-09-24T00:54:26.708Z,17.56
2022-09-24T00:55:30.766Z,17.56
2022-09-24T00:56:32.671Z,17.54
2022-09-24T00:57:34.978Z,17.53
2022-09-24T00:58:36.415Z,17.53
2022-09-24T00:59:38.060Z,17.53
2022-09-24T01:00:39.608Z,17.51
2022-09-24T01:01:41.194Z,17.51
2022-09-24T01:02:43.430Z,17.51
2022-09-24T01:03:45.172Z,17.50
2022-09-24T01:04:46.942Z,17.48
2022-09-24T01:05:48.424Z,17.48
2022-09-24T01:06:49.925Z,17.47
2022-09-24T01:07:51.586Z,17.46
2022-09-24T01:08:53.607Z,17.45
2022-09-24T01:09:55.099Z,17.44
2022-09-24T01:10:59.195Z,17.42
2022-09-24T01:12:08.010Z,17.40
2022-09-24T01:13:14.992Z,17.36
2022-09-24T01:14:16.431Z,17.34
2022-09-24T01:15:28.207Z,17.33
2022-09-24T01:16:39.205Z,17.31
2022-09-24T01:17:48.072Z,17.30
2022-09-24T01:18:55.287Z,17.28
2022-09-24T01:20:15.356Z,17.25
2022-09-24T01:21:30.528Z,17.25
2022-09-24T01:22:37.728Z,17.22
2022-09-24T01:23:48.798Z,17.21
2022-09-24T01:25:20.689Z,17.19
2022-09-24T01:26:46.984Z,17.16
2022-09-24T01:28:04.851Z,17.15
2022-09-24T01:29:25.170Z,16.98
2022-09-24T01:30:32.243Z,17.10
2022-09-24T01:31:38.795Z,17.07
2022-09-24T01:32:41.315Z,17.05
2022-09-24T01:33:42.811Z,17.02
2022-09-24T01:34:52.660Z,16.99
2022-09-24T01:35:55.331Z,16.98
2022-09-24T01:36:57.299Z,16.94
2022-09-24T01:38:00.125Z,16.93
2022-09-24T01:39:01.739Z,16.91
2022-09-24T01:40:03.751Z,16.90
2022-09-24T01:41:05.236Z,16.87
2022-09-24T01:42:06.663Z,16.86
2022-09-24T01:43:08.715Z,16.86
2022-09-24T01:44:10.264Z,16.85
2022-09-24T01:45:12.058Z,16.83
2022-09-24T01:46:13.649Z,16.83
2022-09-24T01:47:19.491Z,16.81
2022-09-24T01:48:21.790Z,16.80
2022-09-24T01:49:23.288Z,16.79
2022-09-24T01:50:24.835Z,16.78
2022-09-24T01:51:30.882Z,16.64
2022-09-24T01:52:34.594Z,16.69
2022-09-24T01:53:37.256Z,16.63
2022-09-24T01:54:39.367Z,16.59
2022-09-24T01:55:43.064Z,16.54
2022-09-24T01:56:48.306Z,16.52
2022-09-24T01:57:50.754Z,16.46
2022-09-24T01:58:56.342Z,16.45
2022-09-24T02:00:00.062Z,16.45
2022-09-24T02:01:10.219Z,16.45
2022-09-24T02:02:50.211Z,16.44
2022-09-24T02:03:53.542Z,16.44
2022-09-24T02:05:17.917Z,16.42
2022-09-24T02:06:21.098Z,16.41
2022-09-24T02:07:42.604Z,16.39
2022-09-24T02:08:45.293Z,16.34
2022-09-24T02:09:47.408Z,16.32
2022-09-24T02:11:00.739Z,16.31
2022-09-24T02:12:17.173Z,16.29
2022-09-24T02:13:18.694Z,16.25
2022-09-24T02:14:20.308Z,16.21
2022-09-24T02:15:23.527Z,16.19
2022-09-24T02:16:26.559Z,16.19
2022-09-24T02:17:28.928Z,16.15
2022-09-24T02:18:31.948Z,16.14
2022-09-24T02:19:34.195Z,16.14
2022-09-24T02:20:36.110Z,16.15
2022-09-24T02:21:37.750Z,16.13
2022-09-24T02:22:39.339Z,16.12
2022-09-24T02:23:41.876Z,16.09
2022-09-24T02:24:50.282Z,16.09
2022-09-24T02:26:02.397Z,16.05
2022-09-24T02:27:03.862Z,16.00
2022-09-24T02:28:05.294Z,15.95
2022-09-24T02:29:07.436Z,15.94
2022-09-24T02:30:10.212Z,15.89
2022-09-24T02:31:13.204Z,15.88
2022-09-24T02:32:15.338Z,15.85
2022-09-24T02:33:35.392Z,15.83
2022-09-24T02:34:38.906Z,15.81
2022-09-24T02:35:40.769Z,15.80
2022-09-24T02:36:43.252Z,15.79
2022-09-24T02:37:44.866Z,15.79
2022-09-24T02:38:46.827Z,15.78
2022-09-24T02:39:48.370Z,15.79
2022-09-24T02:40:50.499Z,15.77
2022-09-24T02:41:53.784Z,15.78
2022-09-24T02:42:55.255Z,15.78
2022-09-24T02:43:56.719Z,15.76
2022-09-24T02:45:00.259Z,15.76
2022-09-24T02:46:02.096Z,15.75
2022-09-24T02:47:03.779Z,15.75
2022-09-24T02:48:05.227Z,15.75
2022-09-24T02:49:06.706Z,15.75
2022-09-24T02:50:08.415Z,15.73
2022-09-24T02:51:09.924Z,15.73
2022-09-24T02:52:12.000Z,15.73
2022-09-24T02:53:13.617Z,15.72
2022-09-24T02:54:15.084Z,15.72
2022-09-24T02:55:16.784Z,15.70
2022-09-24T02:56:18.316Z,15.70
2022-09-24T02:57:19.822Z,15.72
2022-09-24T02:58:21.304Z,15.70
2022-09-24T02:59:22.777Z,15.70
2022-09-24T03:00:24.273Z,15.65
2022-09-24T03:01:25.897Z,15.64
2022-09-24T03:02:27.621Z,15.64
2022-09-24T03:03:29.355Z,15.64
2022-09-24T03:04:31.795Z,15.63
2022-09-24T03:05:33.519Z,15.62
2022-09-24T03:06:35.022Z,15.62
2022-09-24T03:07:36.499Z,15.60
2022-09-24T03:08:38.012Z,15.60
2022-09-24T03:09:39.499Z,15.59
2022-09-24T03:10:41.002Z,15.58
2022-09-24T03:11:42.540Z,15.58
2022-09-24T03:12:43.991Z,15.57
2022-09-24T03:13:45.676Z,15.56
2022-09-24T03:14:47.171Z,15.55
2022-09-24T03:15:48.692Z,15.56
2022-09-24T03:16:50.176Z,15.55
2022-09-24T03:17:51.717Z,15.56
2022-09-24T03:18:53.188Z,15.55
2022-09-24T03:19:54.769Z,15.54
2022-09-24T03:20:56.912Z,15.55
2022-09-24T03:21:58.382Z,15.52
2022-09-24T03:22:59.843Z,15.52
2022-09-24T03:24:01.456Z,15.51
2022-09-24T03:25:03.249Z,15.51
2022-09-24T03:26:04.729Z,15.49
2022-09-24T03:27:06.202Z,15.49
2022-09-24T03:28:07.675Z,15.49
2022-09-24T03:29:09.194Z,15.48
2022-09-24T03:30:29.618Z,15.47
2022-09-24T03:31:31.214Z,15.45
2022-09-24T03:32:33.809Z,15.44
2022-09-24T03:33:36.498Z,15.43
2022-09-24T03:34:37.966Z,15.42
2022-09-24T03:35:39.484Z,15.41
2022-09-24T03:36:40.931Z,15.41
2022-09-24T03:37:47.041Z,15.39
2022-09-24T03:38:51.384Z,15.38
2022-09-24T03:39:52.824Z,15.37
2022-09-24T03:40:54.392Z,15.35
2022-09-24T03:41:56.019Z,15.35
2022-09-24T03:42:57.503Z,15.33
2022-09-24T03:43:59.018Z,15.32
2022-09-24T03:45:00.618Z,15.31
2022-09-24T03:46:03.057Z,15.30
2022-09-24T03:47:04.556Z,15.31
2022-09-24T03:48:06.585Z,15.29
2022-09-24T03:49:08.320Z,15.29
2022-09-24T03:50:12.786Z,15.29
2022-09-24T03:51:15.151Z,15.27
2022-09-24T03:52:17.148Z,15.28
2022-09-24T03:53:18.807Z,15.26
2022-09-24T03:54:20.293Z,15.25
2022-09-24T03:55:21.806Z,15.24
2022-09-24T03:56:23.395Z,15.22
2022-09-24T03:57:24.839Z,15.21
2022-09-24T03:58:26.743Z,15.21
2022-09-24T03:59:28.207Z,15.21
2022-09-24T04:00:29.688Z,15.22
2022-09-24T04:01:33.236Z,15.20
2022-09-24T04:02:34.811Z,15.20
2022-09-24T04:03:36.394Z,15.18
2022-09-24T04:04:38.073Z,15.18
2022-09-24T04:05:40.196Z,15.15
2022-09-24T04:06:41.809Z,15.13
2022-09-24T04:07:43.856Z,15.13
2022-09-24T04:08:45.301Z,15.12
2022-09-24T04:09:46.766Z,15.12
2022-09-24T04:10:48.814Z,15.11
2022-09-24T04:11:52.500Z,15.10
2022-09-24T04:12:54.095Z,15.09
2022-09-24T04:13:55.622Z,15.08
2022-09-24T04:14:57.082Z,15.08
2022-09-24T04:16:02.469Z,15.08
2022-09-24T04:17:04.020Z,15.07
2022-09-24T04:18:05.582Z,15.04
2022-09-24T04:19:08.128Z,15.01
2022-09-24T04:20:10.771Z,14.98
2022-09-24T04:21:12.383Z,14.96
2022-09-24T04:22:14.047Z,14.96
2022-09-24T04:23:15.531Z,14.95
2022-09-24T04:24:17.095Z,14.94
2022-09-24T04:25:18.566Z,14.89
2022-09-24T04:26:21.097Z,14.87
2022-09-24T04:27:22.596Z,14.88
2022-09-24T04:28:25.270Z,14.84
2022-09-24T04:29:26.733Z,14.84
2022-09-24T04:30:28.489Z,14.83
2022-09-24T04:31:30.068Z,14.81
2022-09-24T04:32:31.609Z,14.79
2022-09-24T04:33:33.269Z,14.79
2022-09-24T04:34:34.745Z,14.78
2022-09-24T04:35:36.348Z,14.77
2022-09-24T04:36:37.839Z,14.77
2022-09-24T04:37:39.292Z,14.77
2022-09-24T04:38:40.897Z,14.76
2022-09-24T04:39:42.404Z,14.76
2022-09-24T04:40:45.425Z,14.75
2022-09-24T04:41:47.886Z,14.75
2022-09-24T04:42:49.359Z,14.70
2022-09-24T04:43:51.366Z,14.66
2022-09-24T04:44:56.011Z,14.64
2022-09-24T04:45:59.375Z,14.62
2022-09-24T04:47:02.173Z,14.63
2022-09-24T04:48:03.738Z,14.65
2022-09-24T04:49:05.246Z,14.66
2022-09-24T04:50:07.490Z,14.66
2022-09-24T04:51:08.964Z,14.66
2022-09-24T04:52:10.435Z,14.68
2022-09-24T04:53:12.031Z,14.67
2022-09-24T04:54:13.585Z,14.66
2022-09-24T04:55:15.216Z,14.67
2022-09-24T04:56:16.678Z,14.67
2022-09-24T04:57:18.167Z,14.66
2022-09-24T04:58:19.646Z,14.65
2022-09-24T04:59:21.920Z,14.66
2022-09-24T05:00:23.390Z,14.65
2022-09-24T05:01:24.928Z,14.65
2022-09-24T05:02:26.591Z,14.66
2022-09-24T05:03:28.143Z,14.65
2022-09-24T05:04:30.245Z,14.67
2022-09-24T05:05:34.393Z,14.67
2022-09-24T05:06:36.268Z,14.69
2022-09-24T05:07:37.700Z,14.69
2022-09-24T05:08:39.210Z,14.70
2022-09-24T05:09:40.672Z,14.70
2022-09-24T05:10:42.191Z,14.71
2022-09-24T05:11:43.688Z,14.73
2022-09-24T05:12:45.159Z,14.73
2022-09-24T05:13:46.631Z,14.73
2022-09-24T05:14:48.702Z,14.75
2022-09-24T05:15:50.583Z,14.73
2022-09-24T05:16:52.203Z,14.74
2022-09-24T05:17:53.682Z,14.75
2022-09-24T05:18:55.439Z,14.75
2022-09-24T05:19:58.009Z,14.75
2022-09-24T05:20:59.569Z,14.76
2022-09-24T05:22:01.048Z,14.77
2022-09-24T05:23:02.519Z,14.76
2022-09-24T05:24:04.026Z,14.78
2022-09-24T05:25:05.762Z,14.78
2022-09-24T05:26:25.782Z,14.79
2022-09-24T05:27:27.276Z,14.79
2022-09-24T05:28:28.748Z,14.79
2022-09-24T05:29:30.221Z,14.80
2022-09-24T05:30:31.695Z,14.80
2022-09-24T05:31:33.290Z,14.80
2022-09-24T05:32:36.683Z,14.78
2022-09-24T05:33:38.151Z,14.78
2022-09-24T05:34:41.345Z,14.78
2022-09-24T05:35:42.806Z,14.78
2022-09-24T05:36:44.352Z,14.79
2022-09-24T05:37:47.759Z,14.79
2022-09-24T05:38:49.192Z,14.80
2022-09-24T05:39:50.750Z,14.81
2022-09-24T05:40:52.344Z,14.82
2022-09-24T05:41:53.948Z,14.82
2022-09-24T05:42:59.488Z,14.83
2022-09-24T05:44:01.498Z,14.84
2022-09-24T05:45:02.968Z,14.86
2022-09-24T05:46:04.524Z,14.85
2022-09-24T05:47:06.368Z,14.87
2022-09-24T05:48:07.891Z,14.85
2022-09-24T05:49:09.560Z,14.86
2022-09-24T05:50:11.472Z,14.88
2022-09-24T05:51:12.936Z,14.88
2022-09-24T05:52:14.403Z,14.88
2022-09-24T05:53:15.925Z,14.89
2022-09-24T05:54:17.808Z,14.89
2022-09-24T05:55:19.252Z,14.91
2022-09-24T05:56:20.724Z,14.91
2022-09-24T05:57:22.199Z,14.93
2022-09-24T05:58:23.652Z,14.94
2022-09-24T05:59:25.121Z,14.95
2022-09-24T06:00:26.558Z,14.95
2022-09-24T06:01:30.067Z,14.95
2022-09-24T06:02:31.690Z,14.96
2022-09-24T06:03:33.243Z,14.95
2022-09-24T06:04:34.700Z,14.96
2022-09-24T06:05:36.215Z,14.97
2022-09-24T06:06:37.698Z,14.96
2022-09-24T06:07:39.188Z,14.99
2022-09-24T06:08:40.619Z,14.97
2022-09-24T06:09:42.259Z,14.99
2022-09-24T06:10:45.453Z,15.00
2022-09-24T06:11:49.119Z,15.00
2022-09-24T06:12:52.758Z,15.02
2022-09-24T06:13:54.204Z,15.05
2022-09-24T06:14:55.650Z,15.06
2022-09-24T06:16:00.937Z,15.08
2022-09-24T06:17:02.408Z,15.09
2022-09-24T06:18:04.331Z,15.10
2022-09-24T06:19:05.899Z,15.12
2022-09-24T06:20:07.596Z,15.13
2022-09-24T06:21:10.564Z,15.14
2022-09-24T06:22:12.196Z,15.15
2022-09-24T06:23:14.199Z,15.17
2022-09-24T06:24:15.967Z,15.19
2022-09-24T06:25:17.476Z,15.20
2022-09-24T06:26:18.963Z,15.22
2022-09-24T06:27:20.439Z,15.23
2022-09-24T06:28:21.902Z,15.26
2022-09-24T06:29:23.433Z,15.27
2022-09-24T06:30:24.902Z,15.28
2022-09-24T06:31:26.370Z,15.30
2022-09-24T06:32:27.903Z,15.32
2022-09-24T06:33:30.521Z,15.35
2022-09-24T06:34:32.056Z,15.36
2022-09-24T06:35:34.075Z,15.39
2022-09-24T06:36:35.815Z,15.40
2022-09-24T06:37:37.317Z,15.41
2022-09-24T06:38:41.930Z,15.44
2022-09-24T06:39:43.428Z,15.45
2022-09-24T06:40:51.125Z,15.46
2022-09-24T06:41:53.112Z,15.47
2022-09-24T06:42:57.673Z,15.48
2022-09-24T06:43:59.190Z,15.49
2022-09-24T06:45:00.777Z,15.51
2022-09-24T06:46:03.665Z,15.52
2022-09-24T06:47:05.133Z,15.53
2022-09-24T06:48:06.673Z,15.55
2022-09-24T06:49:08.279Z,15.57
2022-09-24T06:50:09.864Z,15.56
2022-09-24T06:51:11.346Z,15.61
2022-09-24T06:52:13.124Z,15.63
2022-09-24T06:53:14.641Z,15.65
2022-09-24T06:54:16.156Z,15.66
2022-09-24T06:55:17.616Z,15.68
2022-09-24T06:56:19.099Z,15.71
2022-09-24T06:57:23.227Z,15.74
2022-09-24T06:58:27.094Z,15.76
2022-09-24T06:59:28.565Z,15.79
2022-09-24T07:00:29.987Z,15.81
2022-09-24T07:01:31.584Z,15.83
2022-09-24T07:02:33.194Z,15.86
2022-09-24T07:03:35.120Z,15.88
2022-09-24T07:04:36.581Z,15.92
2022-09-24T07:05:43.200Z,15.95
2022-09-24T07:07:03.968Z,15.98
2022-09-24T07:08:05.499Z,16.02
2022-09-24T07:09:07.087Z,16.05
2022-09-24T07:10:08.687Z,16.08
2022-09-24T07:11:10.183Z,16.10
2022-09-24T07:12:11.709Z,16.15
2022-09-24T07:13:13.368Z,16.16
2022-09-24T07:14:15.482Z,16.19
2022-09-24T07:15:17.035Z,16.24
2022-09-24T07:16:18.497Z,16.28
2022-09-24T07:17:20.044Z,16.33
2022-09-24T07:18:21.621Z,16.37
2022-09-24T07:19:23.070Z,16.41
2022-09-24T07:20:28.049Z,16.44
2022-09-24T07:21:29.491Z,16.48
2022-09-24T07:22:30.943Z,16.52
2022-09-24T07:23:32.450Z,16.56
2022-09-24T07:24:34.091Z,16.60
2022-09-24T07:25:35.804Z,16.62
2022-09-24T07:26:37.268Z,16.66
2022-09-24T07:27:39.180Z,16.69
2022-09-24T07:28:40.652Z,16.72
2022-09-24T07:29:42.211Z,16.73
2022-09-24T07:30:43.683Z,16.76
2022-09-24T07:31:45.206Z,16.78
2022-09-24T07:32:46.684Z,16.80
2022-09-24T07:33:48.147Z,16.82
2022-09-24T07:34:49.601Z,16.83
2022-09-24T07:35:51.159Z,16.85
2022-09-24T07:36:52.653Z,16.86
2022-09-24T07:38:00.441Z,16.86
2022-09-24T07:39:02.163Z,16.90
2022-09-24T07:40:03.683Z,16.91
2022-09-24T07:41:07.996Z,16.93
2022-09-24T07:42:09.735Z,16.94
2022-09-24T07:43:13.965Z,16.96
2022-09-24T07:44:15.819Z,16.97
2022-09-24T07:45:17.485Z,16.98
2022-09-24T07:46:20.196Z,17.00
2022-09-24T07:47:21.716Z,17.01
2022-09-24T07:48:23.648Z,17.03
2022-09-24T07:49:25.110Z,17.04
2022-09-24T07:50:27.474Z,17.06
2022-09-24T07:51:28.969Z,17.09
2022-09-24T07:52:30.415Z,17.11
2022-09-24T07:53:34.772Z,17.14
2022-09-24T07:54:36.308Z,17.15
2022-09-24T07:55:40.502Z,17.19
2022-09-24T07:56:41.931Z,17.22
2022-09-24T07:57:47.485Z,17.27
2022-09-24T07:58:49.967Z,17.32
2022-09-24T07:59:51.555Z,17.37
2022-09-24T08:00:53.049Z,17.42
2022-09-24T08:01:54.535Z,17.47
2022-09-24T08:02:56.641Z,17.53
2022-09-24T08:03:59.419Z,17.59
2022-09-24T08:05:02.471Z,17.62
2022-09-24T08:06:04.358Z,17.66
2022-09-24T08:07:05.810Z,17.70
2022-09-24T08:08:07.304Z,17.73
2022-09-24T08:09:08.771Z,17.75
2022-09-24T08:10:10.229Z,17.81
2022-09-24T08:11:13.318Z,17.82
2022-09-24T08:12:14.759Z,17.86
2022-09-24T08:13:16.291Z,17.88
2022-09-24T08:14:17.791Z,17.91
2022-09-24T08:15:19.263Z,17.93
2022-09-24T08:16:23.756Z,17.94
2022-09-24T08:17:25.403Z,18.00
2022-09-24T08:18:27.096Z,18.02
2022-09-24T08:19:30.919Z,18.05
2022-09-24T08:20:32.560Z,18.08
2022-09-24T08:21:34.033Z,18.09
2022-09-24T08:22:35.994Z,18.11
2022-09-24T08:23:37.748Z,18.12
2022-09-24T08:24:39.172Z,18.13
2022-09-24T08:25:40.655Z,18.14
2022-09-24T08:26:42.235Z,18.14
2022-09-24T08:27:43.723Z,18.15
2022-09-24T08:28:45.147Z,18.15
2022-09-24T08:29:46.910Z,18.18
2022-09-24T08:30:48.611Z,18.18
2022-09-24T08:31:50.124Z,18.19
2022-09-24T08:32:51.604Z,18.22
2022-09-24T08:33:53.068Z,18.24
2022-09-24T08:34:54.526Z,18.25
2022-09-24T08:35:56.006Z,18.27
2022-09-24T08:36:57.601Z,18.27
2022-09-24T08:38:01.275Z,18.28
2022-09-24T08:39:02.751Z,18.30
2022-09-24T08:40:04.547Z,18.30
2022-09-24T08:41:14.636Z,18.30
2022-09-24T08:42:34.519Z,18.31
2022-09-24T08:43:51.349Z,18.33
2022-09-24T08:45:11.747Z,18.35
2022-09-24T08:46:44.148Z,18.36
2022-09-24T08:48:02.992Z,18.36
2022-09-24T08:49:04.883Z,18.36
2022-09-24T08:50:13.808Z,18.36
2022-09-24T08:51:17.865Z,18.37
2022-09-24T08:52:37.995Z,18.38
2022-09-24T08:53:45.334Z,18.36
2022-09-24T08:54:46.783Z,18.38
2022-09-24T08:55:54.371Z,18.40
2022-09-24T08:56:56.051Z,18.40
2022-09-24T08:58:05.088Z,18.40
2022-09-24T08:59:11.482Z,18.41
2022-09-24T09:00:15.916Z,18.44
2022-09-24T09:01:29.538Z,18.45
2022-09-24T09:02:40.264Z,18.48
2022-09-24T09:03:45.161Z,18.49
2022-09-24T09:04:49.749Z,18.51
2022-09-24T09:06:09.309Z,18.56
2022-09-24T09:07:10.724Z,18.58
2022-09-24T09:08:41.461Z,18.59
2022-09-24T09:09:49.705Z,18.64
2022-09-24T09:10:52.166Z,18.69
2022-09-24T09:11:58.923Z,18.77
2022-09-24T09:13:02.682Z,18.88
2022-09-24T09:14:23.401Z,19.00
2022-09-24T09:15:25.780Z,19.17
2022-09-24T09:16:33.957Z,19.30
2022-09-24T09:17:48.131Z,19.51
2022-09-24T09:18:50.486Z,19.73
2022-09-24T09:19:58.294Z,19.89
2022-09-24T09:21:05.941Z,20.03
2022-09-24T09:22:10.147Z,20.12
2022-09-24T09:23:16.691Z,20.20
2022-09-24T09:24:18.933Z,20.34
2022-09-24T09:25:21.846Z,20.44
2022-09-24T09:26:24.908Z,20.56
2022-09-24T09:27:26.352Z,20.65
2022-09-24T09:28:27.902Z,20.71
2022-09-24T09:29:30.760Z,20.78
2022-09-24T09:30:43.600Z,20.88
2022-09-24T09:31:55.441Z,20.93
2022-09-24T09:33:02.571Z,20.97
2022-09-24T09:34:39.142Z,21.01
2022-09-24T09:35:47.136Z,21.07
2022-09-24T09:37:03.744Z,21.17
2022-09-24T09:38:05.194Z,21.24
2022-09-24T09:39:29.945Z,21.26
2022-09-24T09:40:46.881Z,21.30
2022-09-24T09:41:50.545Z,21.28
2022-09-24T09:42:52.416Z,21.29
2022-09-24T09:43:55.418Z,21.28
2022-09-24T09:44:56.927Z,21.28
2022-09-24T09:46:17.139Z,21.29
2022-09-24T09:47:32.842Z,21.29
2022-09-24T09:48:55.533Z,21.32
2022-09-24T09:49:57.625Z,21.36
2022-09-24T09:50:59.967Z,21.40
2022-09-24T09:52:02.787Z,21.42
2022-09-24T09:53:05.044Z,21.40
2022-09-24T09:54:06.539Z,21.46
2022-09-24T09:55:08.249Z,21.43
2022-09-24T09:56:09.687Z,21.40
2022-09-24T09:57:18.380Z,21.31
2022-09-24T09:58:21.894Z,21.15
2022-09-24T09:59:28.835Z,21.15
2022-09-24T10:00:34.501Z,21.20
2022-09-24T10:01:37.099Z,21.16
2022-09-24T10:02:38.661Z,21.12
2022-09-24T10:03:52.430Z,21.06
2022-09-24T10:04:58.044Z,21.03
2022-09-24T10:06:01.039Z,21.00
2022-09-24T10:07:09.434Z,20.98
2022-09-24T10:08:23.909Z,20.95
2022-09-24T10:09:25.371Z,20.80
2022-09-24T10:10:27.474Z,20.82
2022-09-24T10:11:28.942Z,20.75
2022-09-24T10:12:30.475Z,20.75
2022-09-24T10:13:32.292Z,20.77
2022-09-24T10:14:33.798Z,20.79
2022-09-24T10:15:35.432Z,20.81
2022-09-24T10:16:40.350Z,20.82
2022-09-24T10:17:41.912Z,20.81
2022-09-24T10:18:43.355Z,20.77
2022-09-24T10:19:50.754Z,20.72
2022-09-24T10:20:52.475Z,20.72
2022-09-24T10:21:54.750Z,20.71
2022-09-24T10:22:57.488Z,20.71
2022-09-24T10:23:59.528Z,20.67
2022-09-24T10:25:01.657Z,20.69
2022-09-24T10:26:03.411Z,20.67
2022-09-24T10:27:14.644Z,20.62
2022-09-24T10:28:35.900Z,20.60
2022-09-24T10:29:56.021Z,20.61
2022-09-24T10:30:58.965Z,20.63
2022-09-24T10:32:00.617Z,20.61
2022-09-24T10:33:02.627Z,20.62
2022-09-24T10:34:04.509Z,20.64
2022-09-24T10:35:19.429Z,20.63
2022-09-24T10:36:24.713Z,20.65
2022-09-24T10:37:26.260Z,20.66
2022-09-24T10:38:28.554Z,20.67
2022-09-24T10:39:30.252Z,20.69
2022-09-24T10:40:38.318Z,20.71
2022-09-24T10:41:45.865Z,20.73
2022-09-24T10:42:54.287Z,20.71
2022-09-24T10:43:56.585Z,20.74
2022-09-24T10:45:01.304Z,20.75
2022-09-24T10:46:08.501Z,20.75
2022-09-24T10:47:10.195Z,20.79
2022-09-24T10:48:35.503Z,20.80
2022-09-24T10:49:44.070Z,20.80
2022-09-24T10:50:59.443Z,20.82
2022-09-24T10:52:03.860Z,20.84
2022-09-24T10:53:08.936Z,20.86
2022-09-24T10:54:28.431Z,20.88
2022-09-24T10:55:46.244Z,20.93
2022-09-24T10:56:51.557Z,20.96
2022-09-24T10:57:55.795Z,20.99
2022-09-24T10:59:00.232Z,21.01
2022-09-24T11:00:09.444Z,21.03
2022-09-24T11:01:18.703Z,21.09
2022-09-24T11:02:27.504Z,21.04
2022-09-24T11:03:34.956Z,21.07
2022-09-24T11:04:45.341Z,21.13
2022-09-24T11:05:52.327Z,21.21
2022-09-24T11:06:57.146Z,21.26
2022-09-24T11:08:01.034Z,21.30
2022-09-24T11:09:02.591Z,21.34
2022-09-24T11:10:09.182Z,21.40
2022-09-24T11:11:20.710Z,21.45
2022-09-24T11:12:31.357Z,21.52
2022-09-24T11:13:41.891Z,21.56
2022-09-24T11:14:51.369Z,21.59
2022-09-24T11:16:11.405Z,21.63
2022-09-24T11:17:35.945Z,21.67
2022-09-24T11:18:40.166Z,21.71
2022-09-24T11:19:54.656Z,21.70
2022-09-24T11:21:15.020Z,21.66
2022-09-24T11:22:39.596Z,21.64
2022-09-24T11:24:13.892Z,21.54
2022-09-24T11:25:21.392Z,21.52
2022-09-24T11:26:25.731Z,21.54
2022-09-24T11:27:36.297Z,21.57
2022-09-24T11:28:53.046Z,21.49
2022-09-24T11:30:10.154Z,21.41
2022-09-24T11:31:21.444Z,21.48
2022-09-24T11:32:29.355Z,21.47
2022-09-24T11:33:45.868Z,21.50
2022-09-24T11:34:53.436Z,21.48
2022-09-24T11:36:04.535Z,21.53
2022-09-24T11:37:26.539Z,21.57
2022-09-24T11:38:40.027Z,21.61
2022-09-24T11:39:47.628Z,21.67
2022-09-24T11:40:57.933Z,21.70
2022-09-24T11:42:03.503Z,21.73
2022-09-24T11:43:07.738Z,21.75
2022-09-24T11:44:11.274Z,21.76
2022-09-24T11:45:16.835Z,21.78
2022-09-24T11:46:34.365Z,21.78
2022-09-24T11:47:54.609Z,21.80
2022-09-24T11:49:11.307Z,21.78
2022-09-24T11:50:12.734Z,21.83
2022-09-24T11:51:26.499Z,21.85
2022-09-24T11:52:46.809Z,21.83
2022-09-24T11:53:55.697Z,21.86
2022-09-24T11:55:00.186Z,21.81
2022-09-24T11:56:02.263Z,21.82
2022-09-24T11:57:07.696Z,21.83
2022-09-24T11:58:09.325Z,21.90
2022-09-24T11:59:19.087Z,21.90
2022-09-24T12:00:20.690Z,21.94
2022-09-24T12:01:26.483Z,22.00
2022-09-24T12:02:28.059Z,22.03
2022-09-24T12:03:47.119Z,22.07
2022-09-24T12:04:51.449Z,22.11
2022-09-24T12:06:01.346Z,22.12
2022-09-24T12:07:06.143Z,22.14
2022-09-24T12:08:17.591Z,22.13
2022-09-24T12:09:30.916Z,22.09
2022-09-24T12:10:34.574Z,22.02
2022-09-24T12:11:37.019Z,22.01
2022-09-24T12:12:40.982Z,22.06
2022-09-24T12:13:45.110Z,22.10
2022-09-24T12:14:57.571Z,22.16
2022-09-24T12:16:07.380Z,22.18
2022-09-24T12:17:09.243Z,22.18
2022-09-24T12:18:25.008Z,22.17
2022-09-24T12:19:31.723Z,22.17
2022-09-24T12:20:34.502Z,22.17
2022-09-24T12:21:43.104Z,22.15
2022-09-24T12:22:44.602Z,22.16
2022-09-24T12:23:46.268Z,22.20
2022-09-24T12:24:54.325Z,22.18
2022-09-24T12:25:57.118Z,22.23
2022-09-24T12:26:59.843Z,22.26
2022-09-24T12:28:01.413Z,22.25
2022-09-24T12:29:41.808Z,22.28
2022-09-24T12:31:15.714Z,22.35
2022-09-24T12:32:35.892Z,22.40
2022-09-24T12:33:44.696Z,22.43
2022-09-24T12:34:50.910Z,22.48
2022-09-24T12:36:05.926Z,22.55
2022-09-24T12:37:09.271Z,22.65
2022-09-24T12:38:14.164Z,22.72
2022-09-24T12:39:15.703Z,22.75
2022-09-24T12:40:20.415Z,22.79
2022-09-24T12:41:21.939Z,22.81
2022-09-24T12:42:23.478Z,22.80
2022-09-24T12:43:37.023Z,22.84
2022-09-24T12:44:50.082Z,22.83
2022-09-24T12:45:55.702Z,22.83
2022-09-24T12:47:00.459Z,22.86
2022-09-24T12:48:02.004Z,22.90
2022-09-24T12:49:03.501Z,22.91
2022-09-24T12:50:05.330Z,22.93
2022-09-24T12:51:07.000Z,22.96
2022-09-24T12:52:18.484Z,22.95
2022-09-24T12:53:24.887Z,22.93
2022-09-24T12:54:35.716Z,22.88
2022-09-24T12:55:37.286Z,22.84
2022-09-24T12:56:39.026Z,22.81
2022-09-24T12:57:41.599Z,22.82
2022-09-24T12:58:43.686Z,22.80
2022-09-24T12:59:58.137Z,22.78
2022-09-24T13:01:26.030Z,22.71
2022-09-24T13:02:28.568Z,22.71
2022-09-24T13:03:36.839Z,22.70
2022-09-24T13:04:38.453Z,22.69
2022-09-24T13:05:39.908Z,22.63
2022-09-24T13:06:41.772Z,22.63
2022-09-24T13:07:44.174Z,22.61
2022-09-24T13:08:45.607Z,22.60
2022-09-24T13:09:47.182Z,22.58
2022-09-24T13:10:56.080Z,22.59
2022-09-24T13:12:01.533Z,22.58
2022-09-24T13:13:04.277Z,22.56
2022-09-24T13:14:05.782Z,22.58
2022-09-24T13:15:08.354Z,22.58
2022-09-24T13:16:19.481Z,22.59
2022-09-24T13:17:21.039Z,22.56
2022-09-24T13:18:25.271Z,22.50
2022-09-24T13:19:40.862Z,22.48
2022-09-24T13:20:47.628Z,22.43
2022-09-24T13:21:54.902Z,22.43
2022-09-24T13:22:57.332Z,22.43
2022-09-24T13:23:58.794Z,22.46
2022-09-24T13:25:09.312Z,22.43
2022-09-24T13:26:12.979Z,22.47
2022-09-24T13:27:21.821Z,22.42
2022-09-24T13:28:37.399Z,22.41
2022-09-24T13:29:42.159Z,22.42
2022-09-24T13:30:43.631Z,22.42
2022-09-24T13:31:47.811Z,22.40
2022-09-24T13:33:09.920Z,22.42
2022-09-24T13:34:11.420Z,22.48
2022-09-24T13:35:21.792Z,22.50
2022-09-24T13:36:33.825Z,22.51
2022-09-24T13:37:35.688Z,22.47
2022-09-24T13:38:37.676Z,22.42
2022-09-24T13:39:41.895Z,22.41
2022-09-24T13:40:43.602Z,22.43
2022-09-24T13:42:00.408Z,22.42
2022-09-24T13:43:05.608Z,22.42
2022-09-24T13:44:22.462Z,22.45
2022-09-24T13:45:24.145Z,22.51
2022-09-24T13:46:25.624Z,22.51
2022-09-24T13:47:28.499Z,22.47
2022-09-24T13:48:29.960Z,22.50
2022-09-24T13:49:32.313Z,22.53
2022-09-24T13:50:51.764Z,22.58
2022-09-24T13:51:58.199Z,22.52
2022-09-24T13:53:00.609Z,22.45
2022-09-24T13:54:08.191Z,22.46